Time;durP1;ratioP1;P1;durP2;ratioP2;P2;SDS_P1;SDS_P2;PMS_P1;PMS_P2;Temp;Humidity;BMP_temperature;BMP_pressure;BME280_temperature;BME280_humidity;BME280_pressure;Samples;Min_cycle;Max_cycle;Signal;HPM_P1;HPM_P2
2022/12/01 00:01:34;;;;;;;25.27;15.67;;;5.30;94.20;;;8.62;52.81;98118.97;4983135;28;20046;-60
2022/12/01 00:04:02;;;;;;;28.03;14.93;;;5.30;93.50;;;8.63;52.96;98123.31;4984193;28;20050;-60
2022/12/01 00:06:30;;;;;;;28.27;14.80;;;5.30;93.70;;;8.61;52.69;98114.63;4983201;28;20053;-60
2022/12/01 00:11:47;;;;;;;26.77;14.37;;;5.20;93.70;;;8.62;53.15;98118.97;4984208;28;20053;-60
2022/12/01 00:14:15;;;;;;;29.37;15.00;;;5.20;93.50;;;8.60;52.80;98118.25;4998489;28;20066;-60
2022/12/01 00:16:43;;;;;;;28.97;14.50;;;5.20;92.80;;;8.56;52.58;98116.84;4982568;28;20363;-60
2022/12/01 00:19:11;;;;;;;27.27;14.33;;;5.20;92.80;;;8.53;52.78;98114.50;4984246;28;20218;-60
2022/12/01 00:21:39;;;;;;;24.87;12.03;;;5.20;92.80;;;8.52;52.49;98112.81;4999124;28;20334;-60
2022/12/01 00:24:10;;;;;;;21.70;13.00;;;5.20;92.70;;;8.50;52.63;98106.78;4983849;28;20050;-60
2022/12/01 00:26:38;;;;;;;27.70;13.80;;;5.20;92.50;;;8.50;52.47;98109.44;4998827;28;20260;-60
2022/12/01 00:29:07;;;;;;;27.53;15.10;;;5.10;91.60;;;8.52;52.51;98112.81;4984161;28;20049;-59
2022/12/01 00:31:35;;;;;;;29.20;15.30;;;5.10;91.60;;;8.49;52.37;98113.06;4984573;28;20081;-60
2022/12/01 00:34:03;;;;;;;32.77;17.00;;;5.10;90.80;;;8.45;52.44;98115.19;4984033;28;20054;-60
2022/12/01 00:36:38;;;;;;;33.00;17.33;;;5.00;91.50;;;8.44;52.79;98118.78;4997863;28;20042;-60
2022/12/01 00:39:07;;;;;;;28.17;16.30;;;5.00;92.00;;;8.46;52.75;98111.53;4983208;28;20046;-60
2022/12/01 00:41:35;;;;;;;32.97;18.20;;;5.10;92.30;;;8.49;52.48;98118.38;4998761;28;20371;-60
2022/12/01 00:44:03;;;;;;;33.13;18.60;;;5.10;92.20;;;8.50;52.37;98117.41;4983376;28;20050;-60
2022/12/01 00:46:30;;;;;;;28.00;16.07;;;5.00;92.00;;;8.51;52.24;98116.44;4982897;28;20249;-61
2022/12/01 00:48:58;;;;;;;32.23;17.27;;;5.00;92.30;;;8.52;52.44;98114.63;4983676;28;20055;-60
2022/12/01 00:51:26;;;;;;;34.00;18.93;;;5.00;92.20;;;8.51;52.33;98111.13;4983752;28;20054;-60
2022/12/01 00:53:54;;;;;;;31.50;19.23;;;5.00;92.00;;;8.50;52.03;98109.44;4983127;28;20048;-60
2022/12/01 00:56:22;;;;;;;33.03;17.10;;;5.00;92.00;;;8.47;52.03;98117.66;4998672;28;20256;-59
2022/12/01 00:58:49;;;;;;;28.80;15.57;;;5.00;91.10;;;8.47;52.16;98126.50;4983584;28;20042;-60
2022/12/01 01:01:18;;;;;;;27.50;14.30;;;5.00;91.00;;;8.44;52.06;98123.25;4983752;28;20053;-60
2022/12/01 01:03:46;;;;;;;24.43;14.33;;;5.00;91.10;;;8.41;51.97;98120.84;4982301;28;20059;-60
2022/12/01 01:06:15;;;;;;;31.60;18.90;;;5.00;89.70;;;8.41;52.03;98127.03;4996594;28;20061;-60
2022/12/01 01:08:45;;;;;;;28.90;15.87;;;5.00;90.20;;;8.40;51.91;98124.47;4983341;28;20156;-60
2022/12/01 01:11:12;;;;;;;25.23;13.60;;;5.00;89.80;;;8.41;51.66;98123.50;4983553;28;20054;-59
2022/12/01 01:13:40;;;;;;;26.47;15.50;;;5.00;88.60;;;8.34;51.77;98125.88;4997937;28;20047;-59
2022/12/01 01:16:19;;;;;;;24.77;14.53;;;5.00;90.50;;;8.33;52.04;98118.88;4983463;28;20047;-60
2022/12/01 01:18:48;;;;;;;29.50;16.13;;;5.00;90.10;;;8.35;51.66;98126.69;4997800;28;20043;-60
2022/12/01 01:21:20;;;;;;;24.30;15.07;;;5.10;89.60;;;8.35;51.74;98126.69;4998373;28;20367;-60
2022/12/01 01:23:49;;;;;;;30.53;16.10;;;5.10;89.20;;;8.29;51.89;98130.72;4983214;28;20088;-60
2022/12/01 01:26:21;;;;;;;26.97;12.67;;;5.10;89.00;;;8.22;51.52;98126.91;4997878;28;20049;-60
2022/12/01 01:28:50;;;;;;;27.07;15.63;;;4.90;87.60;;;8.22;51.54;98129.56;4983262;28;20055;-60
2022/12/01 01:31:23;;;;;;;26.77;15.37;;;4.80;88.30;;;8.23;51.88;98131.25;4997855;28;20061;-60
2022/12/01 01:33:51;;;;;;;28.42;16.70;;;4.90;89.20;;;8.23;51.68;98129.44;4997789;28;20050;-60
2022/12/01 01:36:19;;;;;;;32.83;18.27;;;5.00;89.20;;;8.19;51.69;98132.50;4983591;28;20043;-60
2022/12/01 01:38:50;;;;;;;30.67;16.27;;;5.00;88.40;;;8.17;51.76;98135.28;4983364;28;20072;-60
2022/12/01 01:41:19;;;;;;;26.87;15.77;;;4.90;88.70;;;8.18;51.69;98134.34;4997466;28;20043;-60
2022/12/01 01:43:54;;;;;;;27.67;16.63;;;4.90;89.20;;;8.16;51.68;98133.63;4997761;28;20051;-60
2022/12/01 01:46:28;;;;;;;26.07;12.53;;;4.90;88.60;;;8.20;51.65;98134.16;4982933;28;20367;-60
2022/12/01 01:49:10;;;;;;;25.63;13.17;;;4.90;88.80;;;8.23;51.85;98140.06;4982910;28;20050;-59
2022/12/01 01:51:52;;;;;;;32.90;18.80;;;4.80;89.10;;;8.24;51.88;98139.09;5011350;28;20375;-60
2022/12/01 01:54:31;;;;;;;29.43;16.40;;;4.80;89.50;;;8.27;51.49;98135.31;4997561;28;20050;-60
2022/12/01 01:57:00;;;;;;;25.63;13.13;;;4.90;89.90;;;8.26;51.47;98139.81;4996492;28;20204;-60
2022/12/01 01:59:47;;;;;;;24.93;14.97;;;4.80;89.80;;;8.24;51.35;98139.09;4997921;28;20049;-60
2022/12/01 02:02:16;;;;;;;29.67;18.17;;;4.80;88.10;;;8.22;51.44;98133.09;4997252;28;20046;-60
2022/12/01 02:04:50;;;;;;;34.23;19.90;;;4.80;90.80;;;8.19;51.74;98132.50;4982575;28;20051;-60
2022/12/01 02:07:19;;;;;;;34.42;15.80;;;4.90;90.70;;;8.16;51.50;98133.63;4996235;28;20051;-60
2022/12/01 02:09:47;;;;;;;22.43;13.30;;;4.90;89.70;;;8.17;51.62;98129.97;4982893;28;20054;-60
2022/12/01 02:12:30;;;;;;;28.47;16.63;;;4.90;89.10;;;8.17;51.85;98139.75;4982426;28;20058;-60
2022/12/01 02:15:35;;;;;;;23.60;13.30;;;4.80;88.60;;;8.09;52.14;98129.81;4982599;28;20047;-60
2022/12/01 02:18:28;;;;;;;25.10;13.60;;;4.80;88.30;;;8.13;51.82;98122.44;4985177;28;20045;-61
2022/12/01 02:21:20;;;;;;;29.00;16.10;;;4.80;88.50;;;8.11;51.54;98125.22;5000822;28;20048;-60
2022/12/01 02:24:27;;;;;;;25.97;13.13;;;4.80;88.20;;;8.11;51.52;98114.63;4986496;28;20273;-60
2022/12/01 02:26:58;;;;;;;24.50;13.57;;;4.80;87.90;;;8.05;51.16;98110.69;4999329;28;20053;-59
2022/12/01 02:29:58;;;;;;;22.83;13.13;;;4.80;87.50;;;7.98;51.70;98114.84;4986235;28;20047;-61
2022/12/01 02:33:26;;;;;;;25.23;12.90;;;4.70;87.70;;;7.94;51.32;98107.28;4986238;28;20075;-59
2022/12/01 02:36:21;;;;;;;21.60;11.67;;;4.80;86.10;;;7.97;51.29;98105.22;4983742;28;20054;-59
2022/12/01 02:38:57;;;;;;;25.48;13.20;;;4.60;86.30;;;7.99;50.64;98103.28;4986226;28;20047;-60
2022/12/01 02:41:46;;;;;;;20.90;12.37;;;4.60;87.10;;;7.99;50.97;98105.91;5000709;28;20047;-60
2022/12/01 02:44:43;;;;;;;21.97;11.70;;;4.60;87.30;;;8.02;51.28;98108.28;4985415;28;20054;-60
2022/12/01 02:47:16;;;;;;;20.30;10.73;;;4.70;86.80;;;8.08;50.88;98105.13;5014731;28;20063;-59
2022/12/01 02:49:51;;;;;;;20.60;11.47;;;4.60;87.50;;;8.08;50.95;98110.44;5000543;28;20228;-60
2022/12/01 02:52:22;;;;;;;23.97;13.07;;;4.70;88.10;;;8.11;51.12;98103.19;5001088;28;20054;-60
2022/12/01 02:54:52;;;;;;;23.17;12.40;;;4.70;88.30;;;8.14;50.71;98109.03;5000092;28;20349;-60
2022/12/01 02:57:23;;;;;;;19.33;11.23;;;4.70;89.00;;;8.15;50.64;98104.59;5000761;28;20049;-60
2022/12/01 02:59:53;;;;;;;21.07;11.00;;;4.70;87.60;;;8.14;50.72;98116.16;4985964;28;20359;-60
2022/12/01 03:02:49;;;;;;;19.63;10.90;;;4.70;88.30;;;8.13;50.85;98123.28;5000580;28;20048;-59
2022/12/01 03:05:23;;;;;;;19.43;11.27;;;4.60;88.10;;;8.14;50.72;98116.97;4985353;28;20058;-59
2022/12/01 03:08:07;;;;;;;;;;;4.60;88.30;;;8.11;50.92;98114.63;5000888;28;20345;-60
2022/12/01 03:10:58;;;;;;;20.53;11.43;;;4.60;86.20;;;8.14;50.51;98118.81;4984829;28;19932;-59
2022/12/01 03:14:08;;;;;;;18.87;10.53;;;4.60;86.30;;;8.03;50.75;98114.44;4985556;28;20046;-59
2022/12/01 03:17:07;;;;;;;17.27;9.93;;;4.50;87.70;;;8.03;50.82;98112.63;4998629;28;20059;-59
2022/12/01 03:20:10;;;;;;;19.30;11.13;;;4.50;87.90;;;8.02;50.50;98112.75;4999898;28;20237;-59
2022/12/01 03:22:50;;;;;;;19.73;10.93;;;4.60;86.70;;;8.01;50.41;98113.75;4998739;28;20057;-60
2022/12/01 03:25:20;;;;;;;20.93;11.47;;;4.50;86.80;;;8.02;50.78;98116.25;4999515;28;20051;-59
2022/12/01 03:27:55;;;;;;;17.73;11.23;;;4.60;87.60;;;8.03;50.75;98111.81;4982924;28;20061;-59
2022/12/01 03:30:45;;;;;;;21.02;12.65;;;4.60;87.70;;;7.99;50.59;98103.28;4985513;28;20051;-60
2022/12/01 03:33:24;;;;;;;22.40;11.50;;;4.60;86.60;;;7.86;50.82;98106.13;4999816;28;20057;-59
2022/12/01 03:36:00;;;;;;;20.90;11.17;;;4.60;85.50;;;7.82;50.32;98099.41;4999767;28;20050;-59
2022/12/01 03:38:30;;;;;;;24.47;12.40;;;4.50;84.80;;;7.81;50.53;98102.19;4999354;28;20043;-60
2022/12/01 03:41:09;;;;;;;21.60;11.23;;;4.40;86.50;;;7.79;50.37;98101.50;4985217;28;20049;-59
2022/12/01 03:43:43;;;;;;;19.97;11.30;;;4.40;85.90;;;7.78;50.33;98108.63;4983379;28;20046;-60
2022/12/01 03:46:45;;;;;;;18.27;11.77;;;4.40;86.40;;;7.73;50.40;98109.97;4984822;28;20042;-60
2022/12/01 03:49:16;;;;;;;24.77;13.60;;;4.40;85.80;;;7.75;50.29;98106.22;4998573;28;20055;-58
2022/12/01 03:52:31;;;;;;;21.63;13.20;;;4.40;85.80;;;7.70;50.53;98111.09;4999686;28;20046;-59
2022/12/01 03:55:19;;;;;;;19.37;10.83;;;4.50;85.90;;;7.68;50.52;98113.03;4984346;28;20043;-59
2022/12/01 03:58:28;;;;;;;22.47;11.23;;;4.50;85.70;;;7.67;50.95;98114.81;4984825;28;20050;-59
2022/12/01 04:00:57;;;;;;;21.20;10.97;;;4.50;85.60;;;7.73;50.91;98117.94;4995248;28;20059;-59
2022/12/01 04:03:25;;;;;;;23.00;11.13;;;4.50;86.10;;;7.74;50.81;98117.81;4999616;28;20039;-59
2022/12/01 04:05:54;;;;;;;17.30;11.57;;;4.50;85.80;;;7.76;50.66;98118.50;4982954;28;20051;-59
2022/12/01 04:08:22;;;;;;;20.57;11.57;;;4.50;86.10;;;7.75;50.82;98108.03;4985530;28;20050;-60
2022/12/01 04:10:50;;;;;;;22.10;11.07;;;4.50;86.60;;;7.73;50.61;98109.97;4984677;28;20234;-59
2022/12/01 04:13:22;;;;;;;21.37;12.03;;;4.50;86.50;;;7.73;51.10;98108.16;4984624;28;20349;-59
2022/12/01 04:15:53;;;;;;;22.00;11.53;;;4.50;86.20;;;7.72;50.62;98110.97;4998343;28;20050;-59
2022/12/01 04:18:21;;;;;;;19.63;11.00;;;4.50;86.70;;;7.71;50.62;98111.94;4999379;28;20053;-59
2022/12/01 04:20:49;;;;;;;22.97;12.33;;;4.50;86.70;;;7.72;50.84;98105.66;4998922;28;20046;-59
2022/12/01 04:26:04;;;;;;;21.83;12.13;;;4.50;86.80;;;7.68;50.63;98105.09;4983962;28;20047;-59
2022/12/01 04:28:35;;;;;;;23.40;12.63;;;4.50;87.30;;;7.72;50.65;98113.63;4984375;28;20367;-59
2022/12/01 04:31:03;;;;;;;24.77;12.37;;;4.40;87.60;;;7.74;50.56;98112.50;4984301;28;20056;-59
2022/12/01 04:33:31;;;;;;;22.10;12.67;;;4.40;88.70;;;7.73;51.07;98115.28;4983963;28;20240;-59
2022/12/01 04:36:00;;;;;;;23.43;11.97;;;4.40;88.20;;;7.76;50.71;98117.69;4983902;28;20047;-57
2022/12/01 04:38:28;;;;;;;22.30;11.03;;;4.40;88.40;;;7.76;50.73;98110.56;4998700;28;20371;-58
2022/12/01 04:40:57;;;;;;;23.17;12.00;;;4.40;87.50;;;7.78;51.07;98123.69;4998496;28;20047;-58
2022/12/01 04:43:25;;;;;;;24.93;12.70;;;4.50;88.70;;;7.80;51.06;98119.91;4983978;28;20051;-57
2022/12/01 04:45:53;;;;;;;23.67;11.63;;;4.50;87.50;;;7.75;50.55;98122.13;4984019;28;20183;-58
2022/12/01 04:48:21;;;;;;;22.70;12.37;;;4.50;88.50;;;7.71;50.99;98120.72;4984185;28;20054;-59
2022/12/01 04:50:49;;;;;;;20.17;11.17;;;4.50;87.80;;;7.68;50.98;98128.94;4983593;28;20070;-54
2022/12/01 04:53:16;;;;;;;22.53;12.50;;;4.50;88.30;;;7.71;51.28;98128.66;4996219;28;20051;-53
2022/12/01 04:55:44;;;;;;;22.33;11.50;;;4.50;88.60;;;7.71;51.34;98118.06;4983505;28;20046;-52
2022/12/01 04:58:12;;;;;;;20.83;11.60;;;4.50;88.60;;;7.69;51.47;98125.31;4998668;28;20069;-55
2022/12/01 05:00:40;;;;;;;22.23;12.13;;;4.50;88.10;;;7.70;51.36;98119.03;4998742;28;20053;-53
2022/12/01 05:03:08;;;;;;;21.77;11.70;;;4.50;88.30;;;7.71;51.36;98128.66;4983328;28;20047;-54
2022/12/01 05:05:41;;;;;;;23.25;12.85;;;4.40;88.70;;;7.75;51.11;98119.47;4982035;28;20050;-54
2022/12/01 05:08:09;;;;;;;24.10;12.80;;;4.40;88.80;;;7.78;51.04;98129.00;4998056;28;20061;-53
2022/12/01 05:10:37;;;;;;;24.57;13.07;;;4.40;88.80;;;7.78;51.15;98126.34;4983634;28;20054;-53
2022/12/01 05:13:05;;;;;;;25.07;13.00;;;4.30;88.80;;;7.78;50.88;98132.47;4983280;28;20057;-52
2022/12/01 05:15:33;;;;;;;24.93;12.87;;;4.40;89.20;;;7.80;51.20;98132.34;4982987;28;20077;-53
2022/12/01 05:18:01;;;;;;;25.90;13.17;;;4.40;89.40;;;7.80;50.95;98129.69;4998808;28;20050;-54
2022/12/01 05:23:15;;;;;;;27.20;13.07;;;4.40;89.40;;;7.78;51.08;98132.47;4983264;28;20337;-53
2022/12/01 05:25:43;;;;;;;26.03;13.40;;;4.40;89.60;;;7.79;51.17;98142.13;4983199;28;20056;-51
2022/12/01 05:28:11;;;;;;;25.30;11.93;;;4.50;90.00;;;7.79;51.56;98131.50;4983358;28;20058;-53
2022/12/01 05:30:39;;;;;;;26.57;14.30;;;4.40;89.60;;;7.82;51.00;98136.53;4997671;28;20054;-51
2022/12/01 05:33:07;;;;;;;25.77;12.67;;;4.50;89.50;;;7.83;51.25;98124.97;4998377;28;20047;-53
2022/12/01 05:35:35;;;;;;;20.27;12.20;;;4.40;89.60;;;7.85;51.16;98130.13;4982647;28;20047;-55
2022/12/01 05:38:04;;;;;;;22.67;12.50;;;4.40;89.40;;;7.83;51.18;98127.63;4998310;28;20042;-54
2022/12/01 05:40:36;;;;;;;30.00;13.93;;;4.40;89.60;;;7.79;50.93;98128.00;4997319;28;20047;-54
2022/12/01 05:43:04;;;;;;;27.93;14.80;;;4.30;89.00;;;7.72;50.97;98122.41;4998101;28;20045;-53
2022/12/01 05:45:33;;;;;;;22.53;12.70;;;4.20;89.60;;;7.69;50.81;98126.13;4997114;28;20046;-53
2022/12/01 05:48:01;;;;;;;26.77;14.17;;;4.20;88.70;;;7.66;50.74;98122.94;4983158;28;20341;-52
2022/12/01 05:50:30;;;;;;;34.67;19.43;;;4.20;89.70;;;7.64;51.15;98122.22;4998525;28;20061;-52
2022/12/01 05:52:58;;;;;;;50.37;26.87;;;4.10;88.80;;;7.56;50.73;98129.97;5002073;28;20061;-52
2022/12/01 05:55:26;;;;;;;30.83;17.27;;;3.90;90.10;;;7.55;50.71;98136.25;4986452;28;20053;-53
2022/12/01 05:57:54;;;;;;;29.73;15.37;;;4.00;90.70;;;7.56;51.24;98128.19;5001728;28;20058;-54
2022/12/01 06:00:22;;;;;;;27.77;14.53;;;4.00;90.30;;;7.58;50.92;98133.31;4986644;28;20046;-52
2022/12/01 06:02:49;;;;;;;25.23;14.43;;;4.10;90.80;;;7.58;50.84;98135.97;4987007;28;20047;-54
2022/12/01 06:05:17;;;;;;;24.00;12.47;;;4.10;90.80;;;7.55;51.44;98133.59;4986336;28;20046;-53
2022/12/01 06:07:45;;;;;;;24.53;12.93;;;4.20;90.70;;;7.56;51.08;98133.47;4986443;28;20057;-54
2022/12/01 06:10:13;;;;;;;22.87;13.53;;;4.20;89.50;;;7.49;51.03;98132.31;4986848;28;20051;-52
2022/12/01 06:12:41;;;;;;;23.70;12.50;;;4.00;88.70;;;7.45;51.42;98138.84;4986571;28;20428;-52
2022/12/01 06:15:11;;;;;;;25.83;13.67;;;4.00;91.00;;;7.45;51.07;98144.97;4986327;28;20057;-52
2022/12/01 06:17:39;;;;;;;25.47;12.47;;;4.10;91.00;;;7.46;51.90;98136.06;5001513;28;20038;-55
2022/12/01 06:20:09;;;;;;;24.63;13.50;;;4.20;90.70;;;7.46;51.27;98140.50;4986678;28;20341;-52
2022/12/01 06:22:37;;;;;;;26.67;14.13;;;4.20;89.70;;;7.44;51.30;98139.78;5001204;28;20049;-55
2022/12/01 06:25:05;;;;;;;33.27;16.47;;;4.20;89.90;;;7.45;51.62;98136.19;4986424;28;20252;-54
2022/12/01 06:27:33;;;;;;;32.13;17.10;;;4.20;89.90;;;7.51;51.64;98150.72;4986236;28;20340;-53
2022/12/01 06:30:02;;;;;;;36.37;18.50;;;4.20;90.30;;;7.55;51.61;98146.84;4987209;28;20353;-52
2022/12/01 06:32:30;;;;;;;35.40;18.03;;;4.20;90.50;;;7.58;51.50;98147.44;5001185;28;20340;-54
2022/12/01 06:34:58;;;;;;;40.50;19.80;;;4.30;90.40;;;7.56;51.42;98153.81;4985890;28;20061;-52
2022/12/01 06:37:27;;;;;;;38.73;18.40;;;4.40;90.00;;;7.54;51.50;98156.63;4986162;28;20047;-50
2022/12/01 06:39:55;;;;;;;25.23;14.03;;;4.30;89.20;;;7.42;51.63;98162.94;4985261;28;20049;-52
2022/12/01 06:42:23;;;;;;;25.77;14.23;;;4.20;87.80;;;7.43;51.01;98159.31;4985827;28;20134;-54
2022/12/01 06:44:50;;;;;;;27.03;13.30;;;4.00;89.50;;;7.45;51.45;98162.69;4985553;28;20049;-55
2022/12/01 06:47:18;;;;;;;38.17;17.73;;;4.00;91.10;;;7.47;51.25;98163.38;4986258;28;20046;-55
2022/12/01 06:49:46;;;;;;;34.53;17.50;;;4.00;90.50;;;7.48;51.40;98163.25;5000877;28;20053;-55
2022/12/01 06:52:14;;;;;;;36.37;16.83;;;4.10;91.20;;;7.51;51.35;98167.47;4986118;28;20042;-55
2022/12/01 06:54:42;;;;;;;31.10;16.70;;;4.20;91.00;;;7.49;51.21;98162.28;4985397;28;20055;-52
2022/12/01 06:57:10;;;;;;;26.20;13.60;;;4.20;90.80;;;7.52;51.04;98165.63;5000599;28;20057;-55
2022/12/01 06:59:38;;;;;;;33.40;17.60;;;4.10;88.70;;;7.49;51.54;98161.44;4986019;28;20059;-56
2022/12/01 07:02:10;;;;;;;28.03;15.63;;;4.10;90.60;;;7.47;51.32;98158.91;4985796;28;20341;-56
2022/12/01 07:04:38;;;;;;;30.03;15.13;;;4.10;90.10;;;7.49;51.34;98169.41;5000215;28;20050;-55
2022/12/01 07:07:06;;;;;;;32.90;17.63;;;4.10;90.60;;;7.51;51.55;98171.91;4985706;28;20062;-55
2022/12/01 07:09:34;;;;;;;34.53;17.33;;;4.20;89.90;;;7.52;51.22;98170.94;4985384;28;20046;-55
2022/12/01 07:12:02;;;;;;;28.90;15.70;;;4.20;90.60;;;7.51;51.51;98174.56;5000684;28;20047;-55
2022/12/01 07:14:31;;;;;;;29.23;18.30;;;4.20;90.10;;;7.56;51.18;98178.53;4984969;28;20074;-54
2022/12/01 07:16:59;;;;;;;27.47;16.43;;;4.30;90.90;;;7.59;51.47;98177.41;4985620;28;20053;-55
2022/12/01 07:19:27;;;;;;;24.27;15.20;;;4.20;90.60;;;7.59;51.40;98172.94;4985296;28;20047;-57
2022/12/01 07:21:55;;;;;;;28.43;16.10;;;4.30;90.70;;;7.59;51.25;98172.13;5000545;28;20046;-54
2022/12/01 07:24:22;;;;;;;27.77;15.40;;;4.30;90.30;;;7.59;51.36;98178.25;4984918;28;20053;-52
2022/12/01 07:26:50;;;;;;;23.67;13.93;;;4.30;90.40;;;7.55;51.21;98181.28;4985217;28;20065;-52
2022/12/01 07:29:18;;;;;;;22.87;11.97;;;4.20;89.30;;;7.55;51.50;98173.34;4985570;28;20047;-56
2022/12/01 07:31:46;;;;;;;22.03;11.27;;;4.20;91.10;;;7.56;51.74;98178.53;5000144;28;20055;-56
2022/12/01 07:34:14;;;;;;;22.77;11.80;;;4.20;91.10;;;7.58;51.20;98181.88;4999866;28;20050;-51
2022/12/01 07:36:41;;;;;;;24.73;12.70;;;4.10;90.10;;;7.51;51.38;98187.81;4985060;28;20069;-55
2022/12/01 07:39:09;;;;;;;26.47;12.67;;;3.90;90.90;;;7.35;51.80;98198.81;4984928;28;20051;-56
2022/12/01 07:41:37;;;;;;;20.40;12.77;;;3.80;91.40;;;7.34;51.48;98191.88;4984947;28;20069;-54
2022/12/01 07:44:05;;;;;;;22.07;12.83;;;3.70;93.00;;;7.35;51.61;98204.13;4986018;28;20050;-52
2022/12/01 07:46:33;;;;;;;27.50;13.30;;;3.70;93.30;;;7.38;51.30;98201.25;4984970;28;20049;-56
2022/12/01 07:49:05;;;;;;;22.47;12.63;;;3.80;92.60;;;7.39;51.83;98198.47;4999849;28;20050;-53
2022/12/01 07:51:33;;;;;;;24.90;13.87;;;3.80;93.30;;;7.42;51.69;98203.50;4999438;28;20050;-53
2022/12/01 07:54:04;;;;;;;21.80;12.10;;;3.90;93.30;;;7.34;51.77;98199.81;4983826;28;20356;-56
2022/12/01 07:56:33;;;;;;;25.30;13.07;;;3.80;92.40;;;7.32;51.36;98197.28;5003096;28;20046;-55
2022/12/01 07:59:02;;;;;;;21.23;13.07;;;3.80;92.30;;;7.21;52.20;98205.28;5019385;28;20050;-54
2022/12/01 08:01:30;;;;;;;22.67;11.60;;;3.70;93.50;;;7.12;51.82;98206.88;5003235;28;20241;-56
2022/12/01 08:03:59;;;;;;;27.47;12.87;;;3.60;93.90;;;7.16;52.08;98205.66;5002575;28;20043;-52
2022/12/01 08:06:27;;;;;;;21.87;11.90;;;3.60;94.60;;;7.12;52.26;98196.28;5003004;28;20348;-54
2022/12/01 08:08:55;;;;;;;25.17;13.17;;;3.60;94.30;;;7.15;52.00;98201.31;5004009;28;20046;-52
2022/12/01 08:11:28;;;;;;;24.07;12.63;;;3.70;95.20;;;7.25;52.02;98196.97;5004114;28;20038;-52
2022/12/01 08:13:56;;;;;;;23.60;11.70;;;3.80;94.60;;;7.27;52.52;98200.31;5001830;28;20050;-54
2022/12/01 08:16:24;;;;;;;24.07;13.17;;;3.80;94.40;;;7.25;52.24;98198.75;5003015;28;20047;-54
2022/12/01 08:18:53;;;;;;;21.23;11.17;;;3.80;94.20;;;7.21;52.20;98207.91;5002499;28;20058;-55
2022/12/01 08:21:22;;;;;;;21.77;12.13;;;3.70;94.10;;;6.93;52.53;98193.47;5003956;28;20053;-53
2022/12/01 08:23:56;;;;;;;23.10;12.83;;;3.50;95.20;;;7.01;52.55;98204.28;5003100;28;20383;-55
2022/12/01 08:26:25;;;;;;;28.65;15.32;;;3.50;96.70;;;7.13;52.91;98208.56;5002934;28;20042;-55
2022/12/01 08:28:53;;;;;;;22.77;12.13;;;3.60;97.20;;;7.00;53.18;98203.44;5002711;28;20225;-55
2022/12/01 08:31:26;;;;;;;21.03;12.27;;;3.60;96.10;;;7.03;52.81;98203.16;5003679;28;20146;-55
2022/12/01 08:33:54;;;;;;;25.50;12.00;;;3.60;96.20;;;7.08;53.08;98205.47;5002212;28;20046;-54
2022/12/01 08:36:23;;;;;;;22.20;13.03;;;3.60;96.30;;;7.02;52.53;98208.59;4986057;28;20050;-56
2022/12/01 08:38:54;;;;;;;26.57;15.53;;;3.50;95.80;;;7.07;52.90;98209.06;5002257;28;20050;-55
2022/12/01 08:41:23;;;;;;;22.03;12.33;;;3.60;97.30;;;6.94;52.86;98206.59;5003513;28;20043;-51
2022/12/01 08:43:52;;;;;;;26.77;13.27;;;3.50;95.50;;;6.76;53.20;98206.25;5001765;28;20050;-55
2022/12/01 08:46:30;;;;;;;24.20;13.47;;;3.40;95.20;;;6.86;52.40;98209.84;5003300;28;20042;-53
2022/12/01 08:48:58;;;;;;;24.13;14.30;;;3.40;96.70;;;6.82;52.78;98208.38;5002471;28;20042;-55
2022/12/01 08:51:27;;;;;;;24.43;13.57;;;3.50;96.10;;;6.89;53.00;98214.88;5003124;28;20030;-55
2022/12/01 08:53:57;;;;;;;28.10;12.63;;;3.60;96.40;;;6.96;53.04;98215.25;5001874;28;20046;-56
2022/12/01 08:56:36;;;;;;;24.97;14.27;;;3.70;95.40;;;7.03;52.80;98215.56;5002804;28;20085;-54
2022/12/01 08:59:05;;;;;;;23.57;13.43;;;3.70;95.60;;;7.17;53.07;98222.38;5003103;28;20343;-55
2022/12/01 09:01:33;;;;;;;25.27;16.20;;;3.90;95.50;;;7.25;52.88;98223.44;5001853;28;20337;-54
2022/12/01 09:04:07;;;;;;;20.80;13.33;;;3.90;94.20;;;7.28;52.60;98230.28;5001272;28;20042;-52
2022/12/01 09:06:45;;;;;;;26.50;12.63;;;4.00;93.70;;;7.38;52.34;98227.72;5002801;28;20046;-53
2022/12/01 09:09:17;;;;;;;23.47;13.07;;;4.10;93.60;;;7.44;52.32;98225.44;5003179;28;20050;-53
2022/12/01 09:11:46;;;;;;;25.40;15.10;;;4.10;93.60;;;7.46;52.30;98223.50;5001749;28;20047;-56
2022/12/01 09:14:17;;;;;;;21.13;13.57;;;4.20;92.80;;;7.46;52.08;98222.63;5000613;28;20371;-52
2022/12/01 09:16:48;;;;;;;25.60;13.13;;;4.20;91.60;;;7.43;51.77;98229.03;5002788;28;20053;-52
2022/12/01 09:19:18;;;;;;;25.63;12.30;;;4.00;91.10;;;7.41;52.22;98227.50;5002950;28;20042;-53
2022/12/01 09:21:52;;;;;;;20.47;11.27;;;4.00;92.00;;;7.44;51.73;98230.72;5002771;28;20214;-54
2022/12/01 09:24:20;;;;;;;35.03;12.03;;;4.00;92.00;;;7.46;51.66;98227.94;5001264;28;20242;-55
2022/12/01 09:26:48;;;;;;;23.87;13.13;;;4.00;92.50;;;7.47;52.35;98232.28;5002186;28;20048;-55
2022/12/01 09:29:16;;;;;;;22.07;11.83;;;4.00;92.90;;;7.49;52.27;98227.69;5002652;28;20056;-54
2022/12/01 09:31:44;;;;;;;28.57;14.87;;;4.00;92.50;;;7.47;51.88;98233.09;5001702;28;20058;-55
2022/12/01 09:34:18;;;;;;;25.33;12.33;;;4.10;92.10;;;7.49;51.63;98233.81;4992379;28;20057;-56
2022/12/01 09:36:47;;;;;;;22.43;13.63;;;4.00;92.30;;;7.55;51.84;98234.28;4996610;28;20340;-54
2022/12/01 09:39:18;;;;;;;23.07;12.33;;;4.10;92.70;;;7.58;51.71;98224.28;4980903;28;20046;-54
2022/12/01 09:42:06;;;;;;;22.53;13.03;;;4.10;92.30;;;7.53;51.60;98231.75;4997551;28;20042;-54
2022/12/01 09:44:54;;;;;;;20.13;11.20;;;4.00;92.10;;;7.43;51.60;98225.56;4996518;28;20054;-53
2022/12/01 09:47:35;;;;;;;20.63;10.87;;;3.80;92.20;;;7.28;51.85;98219.69;4997751;28;20047;-54
2022/12/01 09:50:15;;;;;;;21.67;11.83;;;3.70;93.50;;;7.17;52.62;98215.28;5012288;28;20050;-54
2022/12/01 09:52:49;;;;;;;20.73;11.67;;;3.60;94.40;;;7.15;52.73;98214.56;4997228;28;20238;-53
2022/12/01 09:55:20;;;;;;;23.33;12.17;;;3.60;95.40;;;7.15;52.83;98221.66;4994369;28;20065;-54
2022/12/01 09:57:53;;;;;;;21.17;11.13;;;3.60;95.50;;;7.16;52.37;98216.25;4996358;28;20580;-55
2022/12/01 10:00:24;;;;;;;;;;;3.60;95.50;;;7.12;52.55;98214.00;4981538;28;20080;-54
2022/12/01 10:03:55;;;;;;;19.43;9.93;;;3.50;95.80;;;7.09;52.59;98213.28;5028120;28;20124;-53
2022/12/01 10:06:39;;;;;;;25.13;11.50;;;3.50;95.60;;;6.79;53.35;98202.53;4985201;28;20058;-54
2022/12/01 10:09:25;;;;;;;21.58;11.93;;;3.40;95.80;;;6.97;52.63;98206.31;4995119;28;20042;-56
2022/12/01 10:12:12;;;;;;;23.80;10.53;;;3.50;97.70;;;7.06;53.15;98207.41;4996510;28;20056;-54
2022/12/01 10:14:40;;;;;;;22.97;11.57;;;3.60;97.30;;;7.09;53.17;98201.81;4995340;28;20046;-55
2022/12/01 10:17:41;;;;;;;20.70;10.90;;;3.60;95.80;;;6.96;52.78;98195.84;4996663;28;20053;-54
2022/12/01 10:20:59;;;;;;;19.83;10.70;;;3.50;96.40;;;6.99;52.82;98201.75;4994128;28;20273;-54
2022/12/01 10:23:46;;;;;;;22.90;10.87;;;3.60;96.30;;;6.83;53.02;98191.56;4995485;28;20089;-51
2022/12/01 10:26:31;;;;;;;22.17;11.97;;;3.40;96.30;;;6.89;53.43;98191.06;4998009;28;20259;-54
2022/12/01 10:29:38;;;;;;;23.63;13.27;;;3.50;97.80;;;7.06;53.11;98196.81;4997045;28;20058;-53
2022/12/01 10:32:31;;;;;;;24.10;11.73;;;3.60;98.30;;;7.24;53.15;98189.97;4997371;28;20185;-53
2022/12/01 10:35:00;;;;;;;23.43;11.83;;;3.90;97.60;;;7.38;53.20;98177.41;4995401;28;20046;-56
2022/12/01 10:37:30;;;;;;;25.40;12.83;;;4.00;95.50;;;7.37;52.80;98184.50;4998960;28;20054;-55
2022/12/01 10:39:59;;;;;;;18.03;10.90;;;4.00;95.60;;;7.34;52.28;98181.28;5000216;28;20060;-56
2022/12/01 10:42:47;;;;;;;25.27;12.33;;;3.90;94.60;;;7.29;52.96;98185.16;4998637;28;20042;-56
2022/12/01 10:45:32;;;;;;;22.50;11.63;;;3.80;95.30;;;7.32;52.66;98178.75;5014537;28;20267;-55
2022/12/01 10:48:21;;;;;;;21.00;12.43;;;3.80;95.40;;;7.31;52.45;98185.03;5004591;28;20050;-53
2022/12/01 10:50:56;;;;;;;20.70;10.97;;;3.80;95.50;;;7.35;52.76;98175.84;5005301;28;20341;-54
2022/12/01 10:53:32;;;;;;;21.47;10.83;;;3.80;95.70;;;7.30;52.70;98170.09;5004710;28;20238;-55
2022/12/01 10:56:19;;;;;;;20.20;11.83;;;3.80;95.30;;;7.34;53.00;98168.03;5002894;28;20363;-53